Lonetree, Wyoming
Current Conditions -  °F | °C
As of 12:15 AM on Saturday 25 Oct 2014 (Local Time) from KFBR Reporting Station
Clear Clear  
Wind Chill: 55°   Ceiling: Unl
Heat Index: 55°   Visibility: NA
Dew Point: 18°   Wind: 0mph
Humidity: 24%   Direction: NA
Pressure: 30.3"   Gusts: NA
Location:  41.0297°N, 110.145°W
Report Text: KFBR 250615Z AUTO 00000KT CLR 13/M08 A3030 RMK AO2 T01261076 PWINO
Loading
Personal Weather Stations






























Interactive Weather Map New forecast layout! Learn more

10-Day Weather Forecast

Advertisements
Track Severe Weather on mobile